Polfoss — V2PN7 — position and weather

sailwx.info

Track history (hours):
 
Tides and Currents Weather Stations Pressure Air Temp Water Temp Dewpoint Dewpoint Depression Visibility Wind Speed Wind Dir Waves Ship Positions

Polfoss

Last reported at 2017-Feb-21 05:32 UTC. Time now 2017-Feb-21 05:33 UTC.
Position N 53°35' W 000°04'.

Length 82 m; draft 5.1 m.

Type: Cargo ship. MMSI: 305081000.

Date/timePositionNaut miles runAvg speedWind from/ knotsBaromVisibWave heightAir tempDewpointWater temp
2017-Feb-21 05:32N 53°35' W 000°04'0 0.0
2017-Feb-21 04:31N 53°35' W 000°04'0 0.0
2017-Feb-21 03:31N 53°35' W 000°04'0 0.0
2017-Feb-21 02:33N 53°35' W 000°04'0 0.0
2017-Feb-21 01:32N 53°35' W 000°04'0 0.0
2017-Feb-21 00:32N 53°35' W 000°04'0 0.0
2017-Feb-20 23:31N 53°35' W 000°04'0 0.0
2017-Feb-20 22:28N 53°35' W 000°04'0 0.0
2017-Feb-20 21:33N 53°35' W 000°04'0 0.0
2017-Feb-20 20:32N 53°35' W 000°04'0 0.0
2017-Feb-20 19:32N 53°35' W 000°04'0 0.0
2017-Feb-20 18:31N 53°35' W 000°04'0 0.0
2017-Feb-20 17:31N 53°35' W 000°04'0 0.0
2017-Feb-20 16:30N 53°35' W 000°04'0 0.0
2017-Feb-20 15:32N 53°35' W 000°04'0 0.0
2017-Feb-20 14:32N 53°35' W 000°04'0 0.0
2017-Feb-20 13:32N 53°35' W 000°04'0 0.0
2017-Feb-20 12:31N 53°35' W 000°04'0 0.2
2017-Feb-20 11:33N 53°35' W 000°04'4 3.6
2017-Feb-20 10:33N 53°35' E 000°02'5310.1
2017-Feb-20 05:17N 53°13' E 001°23'912.0
2017-Feb-20 04:33N 53°10' E 001°36'1212.1
2017-Feb-20 03:33N 53°05' E 001°55'8311.8
2017-Feb-19 20:32N 52°31' E 004°00'1211.9
2017-Feb-19 19:33N 52°30' E 004°19'1010.4
2017-Feb-19 18:33N 52°28' E 004°36'2 2.4
2017-Feb-19 17:33N 52°28' E 004°40'0 0.0
2017-Feb-19 16:33N 52°28' E 004°40'0 0.0
2017-Feb-19 15:33N 52°28' E 004°40'0 0.0
2017-Feb-19 14:33N 52°28' E 004°40'0 0.0
2017-Feb-19 13:33N 52°28' E 004°40'0 0.0
2017-Feb-19 12:33N 52°28' E 004°40'0 0.0
2017-Feb-19 11:33N 52°28' E 004°40'0 0.0
2017-Feb-19 10:33N 52°28' E 004°40'0 0.0
2017-Feb-19 09:33N 52°28' E 004°40'0 0.0
2017-Feb-19 08:33N 52°28' E 004°40'0 0.0
2017-Feb-19 07:33N 52°28' E 004°40'0 0.0
2017-Feb-19 06:33N 52°28' E 004°40'0 0.0
2017-Feb-19 05:33N 52°28' E 004°40'0 0.0
2017-Feb-19 04:33N 52°28' E 004°40'0 0.0
2017-Feb-19 03:34N 52°28' E 004°40'0 0.0
2017-Feb-19 02:33N 52°28' E 004°40'1 1.3
2017-Feb-19 01:34N 52°28' E 004°38'4 3.7
2017-Feb-19 00:34N 52°28' E 004°32'1313.4
2017-Feb-18 23:33N 52°42' E 004°30'1313.2
2017-Feb-18 22:33N 52°55' E 004°30'1312.4
2017-Feb-18 21:30N 53°08' E 004°33'1010.8
2017-Feb-18 20:31N 53°18' E 004°32'1212.7
2017-Feb-18 19:33N 53°30' E 004°37'1813.7
2017-Feb-18 18:14N 53°47' E 004°47'27013.7
2017-Feb-17 22:33N 58°17' E 005°15'1413.6
2017-Feb-17 21:33N 58°30' E 005°16'1414.3
2017-Feb-17 20:33N 58°45' E 005°16'1414.1
2017-Feb-17 19:34N 58°59' E 005°18'1414.2
2017-Feb-17 18:34N 59°13' E 005°20'8 7.4
2017-Feb-17 17:32N 59°20' E 005°18'0 0.0
2017-Feb-17 16:33N 59°20' E 005°18'2 1.9
2017-Feb-17 15:33N 59°22' E 005°18'1212.3
2017-Feb-17 14:33N 59°34' E 005°14'1312.7
2017-Feb-17 13:33N 59°47' E 005°20'1312.9
2017-Feb-17 12:33N 59°59' E 005°13'1313.4
2017-Feb-17 11:33N 60°12' E 005°11'1212.1
2017-Feb-17 10:33N 60°24' E 005°07'1413.5
2017-Feb-17 09:33N 60°36' E 004°54'1413.7
2017-Feb-17 08:33N 60°49' E 004°44'1413.4
2017-Feb-17 07:33N 61°03' E 004°44'1313.0
2017-Feb-17 06:34N 61°15' E 004°45'1413.9
2017-Feb-17 05:33N 61°28' E 004°57'1313.2
2017-Feb-17 04:33N 61°41' E 004°57'1313.0
2017-Feb-17 03:33N 61°51' E 005°16'6 6.5
2017-Feb-17 02:33N 61°56' E 005°08'0 0.0
2017-Feb-17 01:33N 61°56' E 005°08'1212.1
2017-Feb-17 00:33N 62°08' E 005°03'1313.3
2017-Feb-16 23:33N 62°21' E 005°13'1413.5
2017-Feb-16 22:33N 62°27' E 005°39'1111.4
2017-Feb-16 21:33N 62°23' E 006°02'0 0.2
2017-Feb-16 20:33N 62°22' E 006°02'0 0.4
2017-Feb-16 19:33N 62°23' E 006°03'8 7.8
2017-Feb-16 18:33N 62°29' E 006°14'3 2.8
2017-Feb-16 17:33N 62°28' E 006°08'2 1.6
2017-Feb-16 16:34N 62°27' E 006°06'2 1.6
2017-Feb-16 15:33N 62°28' E 006°08'0 0.0
2017-Feb-16 14:33N 62°28' E 006°08'0 0.0
2017-Feb-16 13:33N 62°28' E 006°08'0 0.0
2017-Feb-16 12:33N 62°28' E 006°08'0 0.0
2017-Feb-16 11:33N 62°28' E 006°08'3 2.7
2017-Feb-16 10:33N 62°29' E 006°14'2 2.0
2017-Feb-16 09:33N 62°29' E 006°18'0 0.0
2017-Feb-16 08:34N 62°29' E 006°18'0 0.0
2017-Feb-16 07:33N 62°29' E 006°18'0 0.0
2017-Feb-16 06:33N 62°29' E 006°18'1 1.4
2017-Feb-16 05:33N 62°28' E 006°21'4 4.0
2017-Feb-16 04:33N 62°29' E 006°12'5 5.3
2017-Feb-16 03:33N 62°32' E 006°22'6 5.7
2017-Feb-16 02:33N 62°32' E 006°09'1413.8
2017-Feb-16 01:34N 62°42' E 006°29'1414.1
2017-Feb-16 00:33N 62°54' E 006°46'1312.9
2017-Feb-15 23:33N 63°01' E 007°09'1313.2
2017-Feb-15 22:33N 63°07' E 007°35'1313.4
2017-Feb-15 21:34N 63°14' E 008°00'1313.2
2017-Feb-15 20:33N 63°22' E 008°24'1413.8
2017-Feb-15 19:33N 63°28' E 008°52'1413.8
2017-Feb-15 18:33N 63°34' E 009°20'1312.9
2017-Feb-15 17:33N 63°45' E 009°32'1313.2
2017-Feb-15 16:33N 63°57' E 009°47'1312.4
2017-Feb-15 15:32N 64°07' E 010°03'1110.1
2017-Feb-15 14:28N 64°15' E 010°20'1010.8
2017-Feb-15 13:33N 64°25' E 010°26'1312.5
2017-Feb-15 12:33N 64°36' E 010°40'1313.6
2017-Feb-15 11:33N 64°46' E 011°01'1312.7
2017-Feb-15 10:33N 64°55' E 011°23'1313.3
2017-Feb-15 09:33N 65°04' E 011°45'1313.0
2017-Feb-15 08:33N 65°16' E 011°57'1211.7
2017-Feb-15 07:33N 65°28' E 011°58'1313.7
2017-Feb-15 06:33N 65°40' E 012°13'1413.8
2017-Feb-15 05:32N 65°53' E 012°22'1313.5
2017-Feb-15 04:33N 66°05' E 012°40'1313.3
2017-Feb-15 03:32N 66°16' E 012°55'1313.3
2017-Feb-15 02:33N 66°30' E 012°59'1212.1
2017-Feb-15 01:33N 66°41' E 013°08'1312.7
2017-Feb-15 00:33N 66°53' E 013°22'1211.7
2017-Feb-14 23:32N 67°04' E 013°28'1313.1
2017-Feb-14 22:33N 67°17' E 013°27'1313.3
2017-Feb-14 21:32N 67°30' E 013°36'1313.2
2017-Feb-14 20:32N 67°43' E 013°47'1313.3
2017-Feb-14 19:33N 67°55' E 013°57'1413.7
2017-Feb-14 18:33N 68°08' E 014°07'1313.3
2017-Feb-14 17:33N 68°21' E 014°17'1312.8
2017-Feb-14 16:34N 68°29' E 014°45'2 1.7
2017-Feb-14 15:33N 68°30' E 014°48'1 0.8
2017-Feb-14 14:33N 68°29' E 014°49'1 0.9
2017-Feb-14 13:33N 68°29' E 014°51'1111.1
2017-Feb-14 12:33N 68°36' E 015°15'1111.1
2017-Feb-14 11:33N 68°47' E 015°25'1313.2
2017-Feb-14 10:33N 68°60' E 015°23'1312.6
2017-Feb-14 09:33N 69°12' E 015°34'1212.5
2017-Feb-14 08:33N 69°22' E 015°55'1211.7
2017-Feb-14 07:34N 69°27' E 016°24'1212.2
2017-Feb-14 06:33N 69°31' E 016°57'1110.8
2017-Feb-14 05:33N 69°32' E 017°28'2 2.0
2017-Feb-14 04:33N 69°30' E 017°30'10 9.5
2017-Feb-14 03:33N 69°39' E 017°35'1111.4
2017-Feb-14 02:33N 69°33' E 018°02'1312.5
2017-Feb-14 01:34N 69°33' E 018°37'8 8.1
2017-Feb-14 00:33N 69°38' E 018°57'0 0.0
2017-Feb-13 23:33N 69°38' E 018°57'0 0.0
2017-Feb-13 22:33N 69°38' E 018°57'2 1.9
2017-Feb-13 21:33N 69°39' E 018°58'0 0.0
2017-Feb-13 20:33N 69°39' E 018°58'0 0.4
2017-Feb-13 19:33N 69°40' E 018°59'2 1.9
2017-Feb-13 18:33N 69°41' E 019°02'8 7.7
2017-Feb-13 17:33N 69°47' E 019°16'1312.9
2017-Feb-13 16:33N 69°52' E 019°50'1212.1
2017-Feb-13 15:33N 69°59' E 020°19'1111.5
2017-Feb-13 14:33N 70°03' E 020°50'1111.1
2017-Feb-13 13:33N 70°14' E 020°56'8 8.2
2017-Feb-13 12:33N 70°17' E 021°18'7 6.8
2017-Feb-13 11:33N 70°19' E 021°38'7 7.1
2017-Feb-13 10:33N 70°21' E 021°58'9 9.4
2017-Feb-13 09:33N 70°17' E 022°24'1212.3
2017-Feb-13 08:33N 70°14' E 022°59'1312.9
2017-Feb-13 07:33N 70°22' E 023°29'1312.7
2017-Feb-13 06:33N 70°34' E 023°37'4 4.0
2017-Feb-13 05:32N 70°38' E 023°40'0 0.0
2017-Feb-13 04:33N 70°38' E 023°40'0 0.0
2017-Feb-13 03:33N 70°38' E 023°40'0 0.0
2017-Feb-13 02:32N 70°38' E 023°40'0 0.0
2017-Feb-13 01:33N 70°38' E 023°40'0 0.0
2017-Feb-13 00:33N 70°38' E 023°40'0 0.0
2017-Feb-12 23:33N 70°38' E 023°40'0 0.0
2017-Feb-12 22:33N 70°38' E 023°40'0 0.0
2017-Feb-12 21:33N 70°38' E 023°40'0 0.0
2017-Feb-12 20:33N 70°38' E 023°40'0 0.0
2017-Feb-12 19:33N 70°38' E 023°40'0 0.0
2017-Feb-12 18:33N 70°38' E 023°40'0 0.2
2017-Feb-12 17:32N 70°38' E 023°39'8 8.3
2017-Feb-12 16:33N 70°47' E 023°41'1211.7
2017-Feb-12 15:33N 70°54' E 024°08'1211.8
2017-Feb-12 14:33N 71°02' E 024°35'1111.1
2017-Feb-12 13:33N 70°59' E 025°09'1010.0
2017-Feb-12 12:33N 70°56' E 025°37'1212.4
2017-Feb-12 11:33N 70°59' E 026°14'1111.5
2017-Feb-12 10:33N 71°03' E 026°47'1211.8
2017-Feb-12 09:33N 71°07' E 027°21'1212.3
2017-Feb-12 08:32N 71°08' E 027°59'1313.4
2017-Feb-12 07:33N 71°03' E 028°36'1413.5
2017-Feb-12 06:33N 70°55' E 029°10'1313.4
2017-Feb-12 05:33N 70°47' E 029°41'9 8.9
2017-Feb-12 04:33N 70°38' E 029°43'0 0.0
2017-Feb-12 03:33N 70°38' E 029°43'0 0.0
2017-Feb-12 02:32N 70°38' E 029°43'0 0.0
2017-Feb-12 01:32N 70°38' E 029°43'0 0.0
2017-Feb-12 00:33N 70°38' E 029°43'0 0.0
2017-Feb-11 23:33N 70°38' E 029°43'0 0.0
2017-Feb-11 22:33N 70°38' E 029°43'0 0.0
2017-Feb-11 21:33N 70°38' E 029°43'0 0.0
2017-Feb-11 20:32N 70°38' E 029°43'0 0.0
2017-Feb-11 19:33N 70°38' E 029°43'0 0.0
2017-Feb-11 18:33N 70°38' E 029°43'0 0.0
2017-Feb-11 17:33N 70°38' E 029°43'7 7.4
2017-Feb-11 16:33N 70°43' E 029°58'1312.8
2017-Feb-11 15:33N 70°37' E 030°32'1413.6
2017-Feb-11 14:33N 70°27' E 030°60'1313.0
2017-Feb-11 13:33N 70°14' E 030°60'1514.7
2017-Feb-11 12:33N 70°03' E 030°33'1515.3
2017-Feb-11 11:33N 69°50' E 030°07'7 6.6
2017-Feb-11 10:33N 69°44' E 030°04'0 0.0
2017-Feb-11 09:33N 69°44' E 030°04'0 0.0
2017-Feb-11 08:33N 69°44' E 030°04'6 5.5
2017-Feb-11 07:33N 69°49' E 030°07'1313.1
2017-Feb-11 06:33N 69°58' E 030°34'1514.6
2017-Feb-11 05:33N 70°06' E 031°12'1414.4
2017-Feb-11 04:33N 70°11' E 031°51'  
Track history (hours):
 
Tides and Currents Weather Stations Pressure Air Temp Water Temp Dewpoint Dewpoint Depression Visibility Wind Speed Wind Dir Waves Ship Positions

Polfoss

Last reported at 2017-Feb-21 05:32 UTC. Time now 2017-Feb-21 05:33 UTC.
Position N 53°35' W 000°04'.

Length 82 m; draft 5.1 m.

Type: Cargo ship. MMSI: 305081000.

Date/timePositionNaut miles runAvg speedWind from/ knotsBaromVisibWave heightAir tempDewpointWater temp
2017-Feb-21 05:32N 53°35' W 000°04'0 0.0
2017-Feb-21 04:31N 53°35' W 000°04'0 0.0
2017-Feb-21 03:31N 53°35' W 000°04'0 0.0
2017-Feb-21 02:33N 53°35' W 000°04'0 0.0
2017-Feb-21 01:32N 53°35' W 000°04'0 0.0
2017-Feb-21 00:32N 53°35' W 000°04'0 0.0
2017-Feb-20 23:31N 53°35' W 000°04'0 0.0
2017-Feb-20 22:28N 53°35' W 000°04'0 0.0
2017-Feb-20 21:33N 53°35' W 000°04'0 0.0
2017-Feb-20 20:32N 53°35' W 000°04'0 0.0
2017-Feb-20 19:32N 53°35' W 000°04'0 0.0
2017-Feb-20 18:31N 53°35' W 000°04'0 0.0
2017-Feb-20 17:31N 53°35' W 000°04'0 0.0
2017-Feb-20 16:30N 53°35' W 000°04'0 0.0
2017-Feb-20 15:32N 53°35' W 000°04'0 0.0
2017-Feb-20 14:32N 53°35' W 000°04'0 0.0
2017-Feb-20 13:32N 53°35' W 000°04'0 0.0
2017-Feb-20 12:31N 53°35' W 000°04'0 0.2
2017-Feb-20 11:33N 53°35' W 000°04'4 3.6
2017-Feb-20 10:33N 53°35' E 000°02'5310.1
2017-Feb-20 05:17N 53°13' E 001°23'912.0
2017-Feb-20 04:33N 53°10' E 001°36'1212.1
2017-Feb-20 03:33N 53°05' E 001°55'8311.8
2017-Feb-19 20:32N 52°31' E 004°00'1211.9
2017-Feb-19 19:33N 52°30' E 004°19'1010.4
2017-Feb-19 18:33N 52°28' E 004°36'2 2.4
2017-Feb-19 17:33N 52°28' E 004°40'0 0.0
2017-Feb-19 16:33N 52°28' E 004°40'0 0.0
2017-Feb-19 15:33N 52°28' E 004°40'0 0.0
2017-Feb-19 14:33N 52°28' E 004°40'0 0.0
2017-Feb-19 13:33N 52°28' E 004°40'0 0.0
2017-Feb-19 12:33N 52°28' E 004°40'0 0.0
2017-Feb-19 11:33N 52°28' E 004°40'0 0.0
2017-Feb-19 10:33N 52°28' E 004°40'0 0.0
2017-Feb-19 09:33N 52°28' E 004°40'0 0.0
2017-Feb-19 08:33N 52°28' E 004°40'0 0.0
2017-Feb-19 07:33N 52°28' E 004°40'0 0.0
2017-Feb-19 06:33N 52°28' E 004°40'0 0.0
2017-Feb-19 05:33N 52°28' E 004°40'0 0.0
2017-Feb-19 04:33N 52°28' E 004°40'0 0.0
2017-Feb-19 03:34N 52°28' E 004°40'0 0.0
2017-Feb-19 02:33N 52°28' E 004°40'1 1.3
2017-Feb-19 01:34N 52°28' E 004°38'4 3.7
2017-Feb-19 00:34N 52°28' E 004°32'1313.4
2017-Feb-18 23:33N 52°42' E 004°30'1313.2
2017-Feb-18 22:33N 52°55' E 004°30'1312.4
2017-Feb-18 21:30N 53°08' E 004°33'1010.8
2017-Feb-18 20:31N 53°18' E 004°32'1212.7
2017-Feb-18 19:33N 53°30' E 004°37'1813.7
2017-Feb-18 18:14N 53°47' E 004°47'27013.7
2017-Feb-17 22:33N 58°17' E 005°15'1413.6
2017-Feb-17 21:33N 58°30' E 005°16'1414.3
2017-Feb-17 20:33N 58°45' E 005°16'1414.1
2017-Feb-17 19:34N 58°59' E 005°18'1414.2
2017-Feb-17 18:34N 59°13' E 005°20'8 7.4
2017-Feb-17 17:32N 59°20' E 005°18'0 0.0
2017-Feb-17 16:33N 59°20' E 005°18'2 1.9
2017-Feb-17 15:33N 59°22' E 005°18'1212.3
2017-Feb-17 14:33N 59°34' E 005°14'1312.7
2017-Feb-17 13:33N 59°47' E 005°20'1312.9
2017-Feb-17 12:33N 59°59' E 005°13'1313.4
2017-Feb-17 11:33N 60°12' E 005°11'1212.1
2017-Feb-17 10:33N 60°24' E 005°07'1413.5
2017-Feb-17 09:33N 60°36' E 004°54'1413.7
2017-Feb-17 08:33N 60°49' E 004°44'1413.4
2017-Feb-17 07:33N 61°03' E 004°44'1313.0
2017-Feb-17 06:34N 61°15' E 004°45'1413.9
2017-Feb-17 05:33N 61°28' E 004°57'1313.2
2017-Feb-17 04:33N 61°41' E 004°57'1313.0
2017-Feb-17 03:33N 61°51' E 005°16'6 6.5
2017-Feb-17 02:33N 61°56' E 005°08'0 0.0
2017-Feb-17 01:33N 61°56' E 005°08'1212.1
2017-Feb-17 00:33N 62°08' E 005°03'1313.3
2017-Feb-16 23:33N 62°21' E 005°13'1413.5
2017-Feb-16 22:33N 62°27' E 005°39'1111.4
2017-Feb-16 21:33N 62°23' E 006°02'0 0.2
2017-Feb-16 20:33N 62°22' E 006°02'0 0.4
2017-Feb-16 19:33N 62°23' E 006°03'8 7.8
2017-Feb-16 18:33N 62°29' E 006°14'3 2.8
2017-Feb-16 17:33N 62°28' E 006°08'2 1.6
2017-Feb-16 16:34N 62°27' E 006°06'2 1.6
2017-Feb-16 15:33N 62°28' E 006°08'0 0.0
2017-Feb-16 14:33N 62°28' E 006°08'0 0.0
2017-Feb-16 13:33N 62°28' E 006°08'0 0.0
2017-Feb-16 12:33N 62°28' E 006°08'0 0.0
2017-Feb-16 11:33N 62°28' E 006°08'3 2.7
2017-Feb-16 10:33N 62°29' E 006°14'2 2.0
2017-Feb-16 09:33N 62°29' E 006°18'0 0.0
2017-Feb-16 08:34N 62°29' E 006°18'0 0.0
2017-Feb-16 07:33N 62°29' E 006°18'0 0.0
2017-Feb-16 06:33N 62°29' E 006°18'1 1.4
2017-Feb-16 05:33N 62°28' E 006°21'4 4.0
2017-Feb-16 04:33N 62°29' E 006°12'5 5.3
2017-Feb-16 03:33N 62°32' E 006°22'6 5.7
2017-Feb-16 02:33N 62°32' E 006°09'1413.8
2017-Feb-16 01:34N 62°42' E 006°29'1414.1
2017-Feb-16 00:33N 62°54' E 006°46'1312.9
2017-Feb-15 23:33N 63°01' E 007°09'1313.2
2017-Feb-15 22:33N 63°07' E 007°35'1313.4
2017-Feb-15 21:34N 63°14' E 008°00'1313.2
2017-Feb-15 20:33N 63°22' E 008°24'1413.8
2017-Feb-15 19:33N 63°28' E 008°52'1413.8
2017-Feb-15 18:33N 63°34' E 009°20'1312.9
2017-Feb-15 17:33N 63°45' E 009°32'1313.2
2017-Feb-15 16:33N 63°57' E 009°47'1312.4
2017-Feb-15 15:32N 64°07' E 010°03'1110.1
2017-Feb-15 14:28N 64°15' E 010°20'1010.8
2017-Feb-15 13:33N 64°25' E 010°26'1312.5
2017-Feb-15 12:33N 64°36' E 010°40'1313.6
2017-Feb-15 11:33N 64°46' E 011°01'1312.7
2017-Feb-15 10:33N 64°55' E 011°23'1313.3
2017-Feb-15 09:33N 65°04' E 011°45'1313.0
2017-Feb-15 08:33N 65°16' E 011°57'1211.7
2017-Feb-15 07:33N 65°28' E 011°58'1313.7
2017-Feb-15 06:33N 65°40' E 012°13'1413.8
2017-Feb-15 05:32N 65°53' E 012°22'1313.5
2017-Feb-15 04:33N 66°05' E 012°40'1313.3
2017-Feb-15 03:32N 66°16' E 012°55'1313.3
2017-Feb-15 02:33N 66°30' E 012°59'1212.1
2017-Feb-15 01:33N 66°41' E 013°08'1312.7
2017-Feb-15 00:33N 66°53' E 013°22'1211.7
2017-Feb-14 23:32N 67°04' E 013°28'1313.1
2017-Feb-14 22:33N 67°17' E 013°27'1313.3
2017-Feb-14 21:32N 67°30' E 013°36'1313.2
2017-Feb-14 20:32N 67°43' E 013°47'1313.3
2017-Feb-14 19:33N 67°55' E 013°57'1413.7
2017-Feb-14 18:33N 68°08' E 014°07'1313.3
2017-Feb-14 17:33N 68°21' E 014°17'1312.8
2017-Feb-14 16:34N 68°29' E 014°45'2 1.7
2017-Feb-14 15:33N 68°30' E 014°48'1 0.8
2017-Feb-14 14:33N 68°29' E 014°49'1 0.9
2017-Feb-14 13:33N 68°29' E 014°51'1111.1
2017-Feb-14 12:33N 68°36' E 015°15'1111.1
2017-Feb-14 11:33N 68°47' E 015°25'1313.2
2017-Feb-14 10:33N 68°60' E 015°23'1312.6
2017-Feb-14 09:33N 69°12' E 015°34'1212.5
2017-Feb-14 08:33N 69°22' E 015°55'1211.7
2017-Feb-14 07:34N 69°27' E 016°24'1212.2
2017-Feb-14 06:33N 69°31' E 016°57'1110.8
2017-Feb-14 05:33N 69°32' E 017°28'2 2.0
2017-Feb-14 04:33N 69°30' E 017°30'10 9.5
2017-Feb-14 03:33N 69°39' E 017°35'1111.4
2017-Feb-14 02:33N 69°33' E 018°02'1312.5
2017-Feb-14 01:34N 69°33' E 018°37'8 8.1
2017-Feb-14 00:33N 69°38' E 018°57'0 0.0
2017-Feb-13 23:33N 69°38' E 018°57'0 0.0
2017-Feb-13 22:33N 69°38' E 018°57'2 1.9
2017-Feb-13 21:33N 69°39' E 018°58'0 0.0
2017-Feb-13 20:33N 69°39' E 018°58'0 0.4
2017-Feb-13 19:33N 69°40' E 018°59'2 1.9
2017-Feb-13 18:33N 69°41' E 019°02'8 7.7
2017-Feb-13 17:33N 69°47' E 019°16'1312.9
2017-Feb-13 16:33N 69°52' E 019°50'1212.1
2017-Feb-13 15:33N 69°59' E 020°19'1111.5
2017-Feb-13 14:33N 70°03' E 020°50'1111.1
2017-Feb-13 13:33N 70°14' E 020°56'8 8.2
2017-Feb-13 12:33N 70°17' E 021°18'7 6.8
2017-Feb-13 11:33N 70°19' E 021°38'7 7.1
2017-Feb-13 10:33N 70°21' E 021°58'9 9.4
2017-Feb-13 09:33N 70°17' E 022°24'1212.3
2017-Feb-13 08:33N 70°14' E 022°59'1312.9
2017-Feb-13 07:33N 70°22' E 023°29'1312.7
2017-Feb-13 06:33N 70°34' E 023°37'4 4.0
2017-Feb-13 05:32N 70°38' E 023°40'0 0.0
2017-Feb-13 04:33N 70°38' E 023°40'0 0.0
2017-Feb-13 03:33N 70°38' E 023°40'0 0.0
2017-Feb-13 02:32N 70°38' E 023°40'0 0.0
2017-Feb-13 01:33N 70°38' E 023°40'0 0.0
2017-Feb-13 00:33N 70°38' E 023°40'0 0.0
2017-Feb-12 23:33N 70°38' E 023°40'0 0.0
2017-Feb-12 22:33N 70°38' E 023°40'0 0.0
2017-Feb-12 21:33N 70°38' E 023°40'0 0.0
2017-Feb-12 20:33N 70°38' E 023°40'0 0.0
2017-Feb-12 19:33N 70°38' E 023°40'0 0.0
2017-Feb-12 18:33N 70°38' E 023°40'0 0.2
2017-Feb-12 17:32N 70°38' E 023°39'8 8.3
2017-Feb-12 16:33N 70°47' E 023°41'1211.7
2017-Feb-12 15:33N 70°54' E 024°08'1211.8
2017-Feb-12 14:33N 71°02' E 024°35'1111.1
2017-Feb-12 13:33N 70°59' E 025°09'1010.0
2017-Feb-12 12:33N 70°56' E 025°37'1212.4
2017-Feb-12 11:33N 70°59' E 026°14'1111.5
2017-Feb-12 10:33N 71°03' E 026°47'1211.8
2017-Feb-12 09:33N 71°07' E 027°21'1212.3
2017-Feb-12 08:32N 71°08' E 027°59'1313.4
2017-Feb-12 07:33N 71°03' E 028°36'1413.5
2017-Feb-12 06:33N 70°55' E 029°10'1313.4
2017-Feb-12 05:33N 70°47' E 029°41'9 8.9
2017-Feb-12 04:33N 70°38' E 029°43'0 0.0
2017-Feb-12 03:33N 70°38' E 029°43'0 0.0
2017-Feb-12 02:32N 70°38' E 029°43'0 0.0
2017-Feb-12 01:32N 70°38' E 029°43'0 0.0
2017-Feb-12 00:33N 70°38' E 029°43'0 0.0
2017-Feb-11 23:33N 70°38' E 029°43'0 0.0
2017-Feb-11 22:33N 70°38' E 029°43'0 0.0
2017-Feb-11 21:33N 70°38' E 029°43'0 0.0
2017-Feb-11 20:32N 70°38' E 029°43'0 0.0
2017-Feb-11 19:33N 70°38' E 029°43'0 0.0
2017-Feb-11 18:33N 70°38' E 029°43'0 0.0
2017-Feb-11 17:33N 70°38' E 029°43'7 7.4
2017-Feb-11 16:33N 70°43' E 029°58'1312.8
2017-Feb-11 15:33N 70°37' E 030°32'1413.6
2017-Feb-11 14:33N 70°27' E 030°60'1313.0
2017-Feb-11 13:33N 70°14' E 030°60'1514.7
2017-Feb-11 12:33N 70°03' E 030°33'1515.3
2017-Feb-11 11:33N 69°50' E 030°07'7 6.6
2017-Feb-11 10:33N 69°44' E 030°04'0 0.0
2017-Feb-11 09:33N 69°44' E 030°04'0 0.0
2017-Feb-11 08:33N 69°44' E 030°04'6 5.5
2017-Feb-11 07:33N 69°49' E 030°07'1313.1
2017-Feb-11 06:33N 69°58' E 030°34'1514.6
2017-Feb-11 05:33N 70°06' E 031°12'1414.4
2017-Feb-11 04:33N 70°11' E 031°51'  

Dump ship's entire track history